sensor_id;sensor_type;location;lat;lon;timestamp;temperature;humidity
27306;DHT22;14792;50.886;6.468;2023-06-26T00:00:45;20.70;99.90
27306;DHT22;14792;50.886;6.468;2023-06-26T00:03:49;20.80;99.90
27306;DHT22;14792;50.886;6.468;2023-06-26T00:06:51;20.70;99.90
27306;DHT22;14792;50.886;6.468;2023-06-26T00:09:52;20.70;99.90
27306;DHT22;14792;50.886;6.468;2023-06-26T00:12:54;20.70;99.90
27306;DHT22;14792;50.886;6.468;2023-06-26T00:15:56;20.70;99.90
27306;DHT22;14792;50.886;6.468;2023-06-26T00:18:57;20.60;99.90
27306;DHT22;14792;50.886;6.468;2023-06-26T00:21:59;20.50;99.90
27306;DHT22;14792;50.886;6.468;2023-06-26T00:25:00;20.50;99.90
27306;DHT22;14792;50.886;6.468;2023-06-26T00:28:02;20.50;99.90
27306;DHT22;14792;50.886;6.468;2023-06-26T00:31:03;20.40;99.90
27306;DHT22;14792;50.886;6.468;2023-06-26T00:34:05;20.30;99.90
27306;DHT22;14792;50.886;6.468;2023-06-26T00:37:07;20.30;99.90
27306;DHT22;14792;50.886;6.468;2023-06-26T00:40:09;20.30;99.90
27306;DHT22;14792;50.886;6.468;2023-06-26T00:43:10;20.10;99.90
27306;DHT22;14792;50.886;6.468;2023-06-26T00:46:14;20.00;99.90
27306;DHT22;14792;50.886;6.468;2023-06-26T00:49:16;20.00;99.90
27306;DHT22;14792;50.886;6.468;2023-06-26T00:52:18;20.00;99.90
27306;DHT22;14792;50.886;6.468;2023-06-26T00:55:19;20.00;99.90
27306;DHT22;14792;50.886;6.468;2023-06-26T00:58:24;19.90;99.90
27306;DHT22;14792;50.886;6.468;2023-06-26T01:01:27;19.90;99.90
27306;DHT22;14792;50.886;6.468;2023-06-26T01:04:29;19.80;99.90
27306;DHT22;14792;50.886;6.468;2023-06-26T01:07:30;19.90;99.90
27306;DHT22;14792;50.886;6.468;2023-06-26T01:10:32;20.00;99.90
27306;DHT22;14792;50.886;6.468;2023-06-26T01:13:33;19.90;99.90
27306;DHT22;14792;50.886;6.468;2023-06-26T01:16:35;19.90;99.90
27306;DHT22;14792;50.886;6.468;2023-06-26T01:19:37;20.00;99.90
27306;DHT22;14792;50.886;6.468;2023-06-26T01:22:48;20.00;99.90
27306;DHT22;14792;50.886;6.468;2023-06-26T01:28:50;20.00;99.90
27306;DHT22;14792;50.886;6.468;2023-06-26T01:31:52;19.90;99.90
27306;DHT22;14792;50.886;6.468;2023-06-26T01:34:54;19.90;99.90
27306;DHT22;14792;50.886;6.468;2023-06-26T01:38:17;19.90;99.90
27306;DHT22;14792;50.886;6.468;2023-06-26T01:41:19;19.80;99.90
27306;DHT22;14792;50.886;6.468;2023-06-26T01:44:27;19.80;99.90
27306;DHT22;14792;50.886;6.468;2023-06-26T01:47:28;19.70;99.90
27306;DHT22;14792;50.886;6.468;2023-06-26T01:50:29;19.80;99.90
27306;DHT22;14792;50.886;6.468;2023-06-26T01:53:32;19.80;99.90
27306;DHT22;14792;50.886;6.468;2023-06-26T01:56:33;19.70;99.90
27306;DHT22;14792;50.886;6.468;2023-06-26T01:59:34;19.70;99.90
27306;DHT22;14792;50.886;6.468;2023-06-26T02:02:36;19.60;99.90
27306;DHT22;14792;50.886;6.468;2023-06-26T02:05:37;19.60;99.90
27306;DHT22;14792;50.886;6.468;2023-06-26T02:08:39;19.60;99.90
27306;DHT22;14792;50.886;6.468;2023-06-26T02:11:42;19.50;99.90
27306;DHT22;14792;50.886;6.468;2023-06-26T02:14:43;19.50;99.90
27306;DHT22;14792;50.886;6.468;2023-06-26T02:17:45;19.50;99.90
27306;DHT22;14792;50.886;6.468;2023-06-26T02:20:46;19.60;99.90
27306;DHT22;14792;50.886;6.468;2023-06-26T02:23:48;19.70;99.90
27306;DHT22;14792;50.886;6.468;2023-06-26T02:26:50;19.80;99.90
27306;DHT22;14792;50.886;6.468;2023-06-26T02:29:51;20.00;99.90
27306;DHT22;14792;50.886;6.468;2023-06-26T02:32:54;20.00;99.90
27306;DHT22;14792;50.886;6.468;2023-06-26T02:35:55;20.10;99.90
27306;DHT22;14792;50.886;6.468;2023-06-26T02:38:57;20.20;99.90
27306;DHT22;14792;50.886;6.468;2023-06-26T02:41:58;20.30;99.90
27306;DHT22;14792;50.886;6.468;2023-06-26T02:45:00;20.40;99.90
27306;DHT22;14792;50.886;6.468;2023-06-26T02:48:01;20.40;99.90
27306;DHT22;14792;50.886;6.468;2023-06-26T02:51:03;20.50;99.90
27306;DHT22;14792;50.886;6.468;2023-06-26T02:54:05;20.50;99.90
27306;DHT22;14792;50.886;6.468;2023-06-26T02:57:06;20.50;99.90
27306;DHT22;14792;50.886;6.468;2023-06-26T03:00:08;20.60;99.90
27306;DHT22;14792;50.886;6.468;2023-06-26T03:03:10;20.50;99.90
27306;DHT22;14792;50.886;6.468;2023-06-26T03:06:11;20.50;99.90
27306;DHT22;14792;50.886;6.468;2023-06-26T03:09:13;20.40;99.90
27306;DHT22;14792;50.886;6.468;2023-06-26T03:12:14;20.40;99.90
27306;DHT22;14792;50.886;6.468;2023-06-26T03:15:16;20.40;99.90
27306;DHT22;14792;50.886;6.468;2023-06-26T03:18:17;20.40;99.90
27306;DHT22;14792;50.886;6.468;2023-06-26T03:21:19;20.40;99.90
27306;DHT22;14792;50.886;6.468;2023-06-26T03:24:21;20.40;99.90
27306;DHT22;14792;50.886;6.468;2023-06-26T03:27:22;20.40;99.90
27306;DHT22;14792;50.886;6.468;2023-06-26T03:30:25;20.30;99.90
27306;DHT22;14792;50.886;6.468;2023-06-26T03:33:28;20.30;99.90
27306;DHT22;14792;50.886;6.468;2023-06-26T03:36:29;20.30;99.90
27306;DHT22;14792;50.886;6.468;2023-06-26T03:39:31;20.30;99.90
27306;DHT22;14792;50.886;6.468;2023-06-26T03:42:32;20.30;99.90
27306;DHT22;14792;50.886;6.468;2023-06-26T03:45:34;20.30;99.90
27306;DHT22;14792;50.886;6.468;2023-06-26T03:48:36;20.30;99.90
27306;DHT22;14792;50.886;6.468;2023-06-26T03:51:37;20.30;99.90
27306;DHT22;14792;50.886;6.468;2023-06-26T03:54:39;20.30;99.90
27306;DHT22;14792;50.886;6.468;2023-06-26T03:57:40;20.30;99.90
27306;DHT22;14792;50.886;6.468;2023-06-26T04:00:42;20.30;99.90
27306;DHT22;14792;50.886;6.468;2023-06-26T04:03:43;20.30;99.90
27306;DHT22;14792;50.886;6.468;2023-06-26T04:06:45;20.30;99.90
27306;DHT22;14792;50.886;6.468;2023-06-26T04:09:47;20.30;99.90
27306;DHT22;14792;50.886;6.468;2023-06-26T04:12:48;20.30;99.90
27306;DHT22;14792;50.886;6.468;2023-06-26T04:15:50;20.30;99.90
27306;DHT22;14792;50.886;6.468;2023-06-26T04:18:52;20.30;99.90
27306;DHT22;14792;50.886;6.468;2023-06-26T04:21:54;20.20;99.90
27306;DHT22;14792;50.886;6.468;2023-06-26T04:24:55;20.20;99.90
27306;DHT22;14792;50.886;6.468;2023-06-26T04:27:57;20.20;99.90
27306;DHT22;14792;50.886;6.468;2023-06-26T04:30:59;20.20;99.90
27306;DHT22;14792;50.886;6.468;2023-06-26T04:34:00;20.10;99.90
27306;DHT22;14792;50.886;6.468;2023-06-26T04:37:02;20.10;99.90
27306;DHT22;14792;50.886;6.468;2023-06-26T04:40:05;20.00;99.90
27306;DHT22;14792;50.886;6.468;2023-06-26T04:43:06;20.00;99.90
27306;DHT22;14792;50.886;6.468;2023-06-26T04:46:08;20.00;99.90
27306;DHT22;14792;50.886;6.468;2023-06-26T04:49:09;20.00;99.90
27306;DHT22;14792;50.886;6.468;2023-06-26T04:52:11;19.90;99.90
27306;DHT22;14792;50.886;6.468;2023-06-26T04:55:13;20.00;99.90
27306;DHT22;14792;50.886;6.468;2023-06-26T04:58:14;19.90;99.90
27306;DHT22;14792;50.886;6.468;2023-06-26T05:01:16;19.90;99.90
27306;DHT22;14792;50.886;6.468;2023-06-26T05:04:18;19.80;99.90
27306;DHT22;14792;50.886;6.468;2023-06-26T05:07:19;19.80;99.90
27306;DHT22;14792;50.886;6.468;2023-06-26T05:10:21;19.80;99.90
27306;DHT22;14792;50.886;6.468;2023-06-26T05:13:22;19.80;99.90
27306;DHT22;14792;50.886;6.468;2023-06-26T05:16:24;19.70;99.90
27306;DHT22;14792;50.886;6.468;2023-06-26T05:19:26;19.70;99.90
27306;DHT22;14792;50.886;6.468;2023-06-26T05:22:28;19.80;99.90
27306;DHT22;14792;50.886;6.468;2023-06-26T05:25:30;19.80;99.90
27306;DHT22;14792;50.886;6.468;2023-06-26T05:28:32;19.80;99.90
27306;DHT22;14792;50.886;6.468;2023-06-26T05:31:33;19.80;99.90
27306;DHT22;14792;50.886;6.468;2023-06-26T05:34:35;19.80;99.90
27306;DHT22;14792;50.886;6.468;2023-06-26T05:37:36;19.80;99.90
27306;DHT22;14792;50.886;6.468;2023-06-26T05:40:38;19.70;99.90
27306;DHT22;14792;50.886;6.468;2023-06-26T05:43:40;19.70;99.90
27306;DHT22;14792;50.886;6.468;2023-06-26T05:46:41;19.70;99.90
27306;DHT22;14792;50.886;6.468;2023-06-26T05:49:43;19.80;99.90
27306;DHT22;14792;50.886;6.468;2023-06-26T05:52:44;19.80;99.90
27306;DHT22;14792;50.886;6.468;2023-06-26T05:55:46;19.90;99.90
27306;DHT22;14792;50.886;6.468;2023-06-26T05:58:48;19.90;99.90
27306;DHT22;14792;50.886;6.468;2023-06-26T06:01:49;19.80;99.90
27306;DHT22;14792;50.886;6.468;2023-06-26T06:04:51;19.80;99.90
27306;DHT22;14792;50.886;6.468;2023-06-26T06:07:52;19.70;99.90
27306;DHT22;14792;50.886;6.468;2023-06-26T06:10:55;19.60;99.90
27306;DHT22;14792;50.886;6.468;2023-06-26T06:13:57;19.60;99.90
27306;DHT22;14792;50.886;6.468;2023-06-26T06:16:58;19.60;99.90
27306;DHT22;14792;50.886;6.468;2023-06-26T06:20:00;19.50;99.90
27306;DHT22;14792;50.886;6.468;2023-06-26T06:23:01;19.70;99.90
27306;DHT22;14792;50.886;6.468;2023-06-26T06:26:03;19.80;99.90
27306;DHT22;14792;50.886;6.468;2023-06-26T06:29:05;19.80;99.90
27306;DHT22;14792;50.886;6.468;2023-06-26T06:32:06;19.90;99.90
27306;DHT22;14792;50.886;6.468;2023-06-26T06:35:08;19.90;99.90
27306;DHT22;14792;50.886;6.468;2023-06-26T06:38:09;20.10;99.90
27306;DHT22;14792;50.886;6.468;2023-06-26T06:41:11;20.20;99.90
27306;DHT22;14792;50.886;6.468;2023-06-26T06:44:13;20.20;99.90
27306;DHT22;14792;50.886;6.468;2023-06-26T06:47:14;20.20;99.90
27306;DHT22;14792;50.886;6.468;2023-06-26T06:50:16;20.50;99.90
27306;DHT22;14792;50.886;6.468;2023-06-26T06:53:18;20.90;99.90
27306;DHT22;14792;50.886;6.468;2023-06-26T06:56:19;20.90;99.90
27306;DHT22;14792;50.886;6.468;2023-06-26T06:59:21;20.70;99.90
27306;DHT22;14792;50.886;6.468;2023-06-26T07:02:22;20.70;99.90
27306;DHT22;14792;50.886;6.468;2023-06-26T07:05:25;20.80;99.90
27306;DHT22;14792;50.886;6.468;2023-06-26T07:08:27;20.90;99.90
27306;DHT22;14792;50.886;6.468;2023-06-26T07:11:28;21.10;99.90
27306;DHT22;14792;50.886;6.468;2023-06-26T07:14:30;21.40;99.90
27306;DHT22;14792;50.886;6.468;2023-06-26T07:17:32;21.40;99.90
27306;DHT22;14792;50.886;6.468;2023-06-26T07:20:33;21.60;99.90
27306;DHT22;14792;50.886;6.468;2023-06-26T07:23:35;21.70;99.90
27306;DHT22;14792;50.886;6.468;2023-06-26T07:26:36;21.90;99.90
27306;DHT22;14792;50.886;6.468;2023-06-26T07:29:38;22.00;99.90
27306;DHT22;14792;50.886;6.468;2023-06-26T07:32:40;21.80;99.90
27306;DHT22;14792;50.886;6.468;2023-06-26T07:35:44;22.10;99.90
27306;DHT22;14792;50.886;6.468;2023-06-26T07:38:45;22.10;99.90
27306;DHT22;14792;50.886;6.468;2023-06-26T07:41:47;22.10;99.90
27306;DHT22;14792;50.886;6.468;2023-06-26T07:44:48;22.40;99.90
27306;DHT22;14792;50.886;6.468;2023-06-26T07:47:50;22.30;99.90
27306;DHT22;14792;50.886;6.468;2023-06-26T07:50:52;22.20;99.90
27306;DHT22;14792;50.886;6.468;2023-06-26T07:53:53;22.30;99.90
27306;DHT22;14792;50.886;6.468;2023-06-26T07:57:03;22.30;99.90
27306;DHT22;14792;50.886;6.468;2023-06-26T08:00:03;22.20;99.90
27306;DHT22;14792;50.886;6.468;2023-06-26T08:03:04;22.30;99.90
27306;DHT22;14792;50.886;6.468;2023-06-26T08:06:06;22.10;99.90
27306;DHT22;14792;50.886;6.468;2023-06-26T08:09:07;21.90;99.90
27306;DHT22;14792;50.886;6.468;2023-06-26T08:12:09;22.10;99.90
27306;DHT22;14792;50.886;6.468;2023-06-26T08:15:11;22.00;99.90
27306;DHT22;14792;50.886;6.468;2023-06-26T08:18:12;22.40;99.90
27306;DHT22;14792;50.886;6.468;2023-06-26T08:21:14;22.60;99.90
27306;DHT22;14792;50.886;6.468;2023-06-26T08:24:15;22.60;99.90
27306;DHT22;14792;50.886;6.468;2023-06-26T08:27:20;22.50;99.90
27306;DHT22;14792;50.886;6.468;2023-06-26T08:30:21;22.50;99.90
27306;DHT22;14792;50.886;6.468;2023-06-26T08:33:23;22.30;99.90
27306;DHT22;14792;50.886;6.468;2023-06-26T08:36:25;22.50;99.90
27306;DHT22;14792;50.886;6.468;2023-06-26T08:39:27;22.50;99.90
27306;DHT22;14792;50.886;6.468;2023-06-26T08:42:29;22.60;99.90
27306;DHT22;14792;50.886;6.468;2023-06-26T08:45:30;22.90;99.90
27306;DHT22;14792;50.886;6.468;2023-06-26T08:48:32;22.80;99.90
27306;DHT22;14792;50.886;6.468;2023-06-26T08:51:33;23.00;99.90
27306;DHT22;14792;50.886;6.468;2023-06-26T08:54:36;23.10;99.90
27306;DHT22;14792;50.886;6.468;2023-06-26T08:57:37;23.20;99.90
27306;DHT22;14792;50.886;6.468;2023-06-26T09:00:38;23.20;99.90
27306;DHT22;14792;50.886;6.468;2023-06-26T09:03:40;23.30;99.90
27306;DHT22;14792;50.886;6.468;2023-06-26T09:06:41;23.20;99.90
27306;DHT22;14792;50.886;6.468;2023-06-26T09:09:43;23.10;99.90
27306;DHT22;14792;50.886;6.468;2023-06-26T09:12:46;23.10;99.90
27306;DHT22;14792;50.886;6.468;2023-06-26T09:15:46;22.80;99.90
27306;DHT22;14792;50.886;6.468;2023-06-26T09:18:48;23.00;99.90
27306;DHT22;14792;50.886;6.468;2023-06-26T09:21:50;23.40;99.90
27306;DHT22;14792;50.886;6.468;2023-06-26T09:24:51;23.00;99.90
27306;DHT22;14792;50.886;6.468;2023-06-26T09:27:53;23.30;99.90
27306;DHT22;14792;50.886;6.468;2023-06-26T09:30:55;23.50;99.90
27306;DHT22;14792;50.886;6.468;2023-06-26T09:34:00;23.60;99.90
27306;DHT22;14792;50.886;6.468;2023-06-26T09:37:01;24.10;99.90
27306;DHT22;14792;50.886;6.468;2023-06-26T09:40:06;23.80;99.90
27306;DHT22;14792;50.886;6.468;2023-06-26T09:43:07;24.10;99.90
27306;DHT22;14792;50.886;6.468;2023-06-26T09:46:09;24.20;99.90
27306;DHT22;14792;50.886;6.468;2023-06-26T09:49:10;23.60;99.90
27306;DHT22;14792;50.886;6.468;2023-06-26T09:52:15;23.80;99.90
27306;DHT22;14792;50.886;6.468;2023-06-26T09:55:16;24.10;99.90
27306;DHT22;14792;50.886;6.468;2023-06-26T09:58:18;24.50;99.90
27306;DHT22;14792;50.886;6.468;2023-06-26T10:01:23;24.50;99.90
27306;DHT22;14792;50.886;6.468;2023-06-26T10:04:28;24.30;99.90
27306;DHT22;14792;50.886;6.468;2023-06-26T10:07:27;24.20;99.90
27306;DHT22;14792;50.886;6.468;2023-06-26T10:10:32;24.30;99.90
27306;DHT22;14792;50.886;6.468;2023-06-26T10:13:34;24.20;99.90
27306;DHT22;14792;50.886;6.468;2023-06-26T10:16:34;24.60;99.90
27306;DHT22;14792;50.886;6.468;2023-06-26T10:19:37;24.90;99.90
27306;DHT22;14792;50.886;6.468;2023-06-26T10:22:46;25.20;99.90
27306;DHT22;14792;50.886;6.468;2023-06-26T10:25:42;25.20;99.90
27306;DHT22;14792;50.886;6.468;2023-06-26T10:28:41;25.10;99.90
27306;DHT22;14792;50.886;6.468;2023-06-26T10:31:43;25.20;99.90
27306;DHT22;14792;50.886;6.468;2023-06-26T10:34:46;24.70;99.90
27306;DHT22;14792;50.886;6.468;2023-06-26T10:37:48;25.00;99.90
27306;DHT22;14792;50.886;6.468;2023-06-26T10:40:49;25.00;99.90
27306;DHT22;14792;50.886;6.468;2023-06-26T10:44:10;25.60;99.90
27306;DHT22;14792;50.886;6.468;2023-06-26T10:47:11;25.90;99.90
27306;DHT22;14792;50.886;6.468;2023-06-26T10:50:26;25.60;99.90
27306;DHT22;14792;50.886;6.468;2023-06-26T10:53:26;25.50;99.90
27306;DHT22;14792;50.886;6.468;2023-06-26T10:56:43;25.80;99.90
27306;DHT22;14792;50.886;6.468;2023-06-26T10:59:44;25.80;99.90
27306;DHT22;14792;50.886;6.468;2023-06-26T11:02:51;25.80;99.90
27306;DHT22;14792;50.886;6.468;2023-06-26T11:06:21;26.10;99.90
27306;DHT22;14792;50.886;6.468;2023-06-26T11:09:17;26.20;99.90
27306;DHT22;14792;50.886;6.468;2023-06-26T11:12:39;26.10;99.90
27306;DHT22;14792;50.886;6.468;2023-06-26T11:15:22;26.40;99.90
27306;DHT22;14792;50.886;6.468;2023-06-26T11:18:23;26.30;99.90
27306;DHT22;14792;50.886;6.468;2023-06-26T11:21:25;26.30;99.90
27306;DHT22;14792;50.886;6.468;2023-06-26T11:24:34;26.40;99.90
27306;DHT22;14792;50.886;6.468;2023-06-26T11:27:41;26.70;99.90
27306;DHT22;14792;50.886;6.468;2023-06-26T11:30:33;26.70;99.90
27306;DHT22;14792;50.886;6.468;2023-06-26T11:33:35;27.00;99.90
27306;DHT22;14792;50.886;6.468;2023-06-26T11:36:40;26.50;99.90
27306;DHT22;14792;50.886;6.468;2023-06-26T11:39:41;26.40;99.90
27306;DHT22;14792;50.886;6.468;2023-06-26T11:42:42;26.70;99.90
27306;DHT22;14792;50.886;6.468;2023-06-26T11:48:51;26.60;99.90
27306;DHT22;14792;50.886;6.468;2023-06-26T11:51:50;26.60;99.90
27306;DHT22;14792;50.886;6.468;2023-06-26T11:54:51;26.90;99.90
27306;DHT22;14792;50.886;6.468;2023-06-26T11:57:58;26.90;99.90
27306;DHT22;14792;50.886;6.468;2023-06-26T12:01:00;26.70;99.90
27306;DHT22;14792;50.886;6.468;2023-06-26T12:04:05;26.50;99.90
27306;DHT22;14792;50.886;6.468;2023-06-26T12:07:06;26.60;99.90
27306;DHT22;14792;50.886;6.468;2023-06-26T12:10:10;26.70;99.90
27306;DHT22;14792;50.886;6.468;2023-06-26T12:13:11;26.10;99.70
27306;DHT22;14792;50.886;6.468;2023-06-26T12:16:10;26.30;99.90
27306;DHT22;14792;50.886;6.468;2023-06-26T12:19:23;26.10;96.70
27306;DHT22;14792;50.886;6.468;2023-06-26T12:22:16;26.40;98.70
27306;DHT22;14792;50.886;6.468;2023-06-26T12:25:15;26.50;96.90
27306;DHT22;14792;50.886;6.468;2023-06-26T12:28:26;26.30;98.30
27306;DHT22;14792;50.886;6.468;2023-06-26T12:31:20;26.40;98.60
27306;DHT22;14792;50.886;6.468;2023-06-26T12:34:31;26.20;98.30
27306;DHT22;14792;50.886;6.468;2023-06-26T12:37:30;26.00;95.90
27306;DHT22;14792;50.886;6.468;2023-06-26T12:40:34;25.90;96.00
27306;DHT22;14792;50.886;6.468;2023-06-26T12:43:33;25.40;96.80
27306;DHT22;14792;50.886;6.468;2023-06-26T12:46:35;25.70;99.40
27306;DHT22;14792;50.886;6.468;2023-06-26T12:49:37;25.50;97.90
27306;DHT22;14792;50.886;6.468;2023-06-26T12:52:38;25.40;97.70
27306;DHT22;14792;50.886;6.468;2023-06-26T12:55:39;26.00;98.20
27306;DHT22;14792;50.886;6.468;2023-06-26T12:58:41;26.10;97.50
27306;DHT22;14792;50.886;6.468;2023-06-26T13:01:43;25.60;99.10
27306;DHT22;14792;50.886;6.468;2023-06-26T13:04:44;24.70;99.40
27306;DHT22;14792;50.886;6.468;2023-06-26T13:07:46;25.30;98.90
27306;DHT22;14792;50.886;6.468;2023-06-26T13:10:47;25.20;97.90
27306;DHT22;14792;50.886;6.468;2023-06-26T13:13:49;25.10;98.50
27306;DHT22;14792;50.886;6.468;2023-06-26T13:16:51;25.10;98.90
27306;DHT22;14792;50.886;6.468;2023-06-26T13:19:52;24.90;97.80
27306;DHT22;14792;50.886;6.468;2023-06-26T13:22:55;25.00;98.30
27306;DHT22;14792;50.886;6.468;2023-06-26T13:25:57;24.80;97.90
27306;DHT22;14792;50.886;6.468;2023-06-26T13:28:59;24.80;97.60
27306;DHT22;14792;50.886;6.468;2023-06-26T13:32:00;24.90;98.20
27306;DHT22;14792;50.886;6.468;2023-06-26T13:35:02;25.00;97.60
27306;DHT22;14792;50.886;6.468;2023-06-26T13:38:03;25.60;97.60
27306;DHT22;14792;50.886;6.468;2023-06-26T13:41:05;26.00;97.10
27306;DHT22;14792;50.886;6.468;2023-06-26T13:44:07;25.80;93.90
27306;DHT22;14792;50.886;6.468;2023-06-26T13:47:09;25.50;94.00
27306;DHT22;14792;50.886;6.468;2023-06-26T13:50:10;25.40;94.10
27306;DHT22;14792;50.886;6.468;2023-06-26T13:53:12;26.00;95.90
27306;DHT22;14792;50.886;6.468;2023-06-26T13:56:13;25.70;95.00
27306;DHT22;14792;50.886;6.468;2023-06-26T13:59:15;25.80;95.20
27306;DHT22;14792;50.886;6.468;2023-06-26T14:02:16;26.20;96.50
27306;DHT22;14792;50.886;6.468;2023-06-26T14:05:18;26.10;95.10
27306;DHT22;14792;50.886;6.468;2023-06-26T14:08:22;25.30;95.10
27306;DHT22;14792;50.886;6.468;2023-06-26T14:11:23;25.30;96.00
27306;DHT22;14792;50.886;6.468;2023-06-26T14:14:26;25.00;96.60
27306;DHT22;14792;50.886;6.468;2023-06-26T14:17:28;24.90;96.70
27306;DHT22;14792;50.886;6.468;2023-06-26T14:20:29;24.90;96.70
27306;DHT22;14792;50.886;6.468;2023-06-26T14:23:31;24.80;96.90
27306;DHT22;14792;50.886;6.468;2023-06-26T14:26:32;24.50;96.30
27306;DHT22;14792;50.886;6.468;2023-06-26T14:29:35;24.60;96.40
27306;DHT22;14792;50.886;6.468;2023-06-26T14:32:36;25.00;96.60
27306;DHT22;14792;50.886;6.468;2023-06-26T14:35:37;25.00;95.40
27306;DHT22;14792;50.886;6.468;2023-06-26T14:38:39;24.70;96.30
27306;DHT22;14792;50.886;6.468;2023-06-26T14:41:41;25.00;97.30
27306;DHT22;14792;50.886;6.468;2023-06-26T14:44:42;25.60;95.90
27306;DHT22;14792;50.886;6.468;2023-06-26T14:47:44;25.60;96.50
27306;DHT22;14792;50.886;6.468;2023-06-26T14:50:45;26.00;96.50
27306;DHT22;14792;50.886;6.468;2023-06-26T14:53:47;25.30;95.50
27306;DHT22;14792;50.886;6.468;2023-06-26T14:56:48;24.60;96.60
27306;DHT22;14792;50.886;6.468;2023-06-26T14:59:50;24.40;97.80
27306;DHT22;14792;50.886;6.468;2023-06-26T15:02:52;24.20;97.80
27306;DHT22;14792;50.886;6.468;2023-06-26T15:05:54;24.10;96.60
27306;DHT22;14792;50.886;6.468;2023-06-26T15:08:57;24.50;95.50
27306;DHT22;14792;50.886;6.468;2023-06-26T15:11:59;24.30;95.80
27306;DHT22;14792;50.886;6.468;2023-06-26T15:15:00;24.20;96.40
27306;DHT22;14792;50.886;6.468;2023-06-26T15:18:02;24.10;96.60
27306;DHT22;14792;50.886;6.468;2023-06-26T15:21:04;24.00;97.40
27306;DHT22;14792;50.886;6.468;2023-06-26T15:24:05;24.10;97.00
27306;DHT22;14792;50.886;6.468;2023-06-26T15:27:07;24.10;97.40
27306;DHT22;14792;50.886;6.468;2023-06-26T15:30:08;23.80;96.90
27306;DHT22;14792;50.886;6.468;2023-06-26T15:33:10;23.90;97.90
27306;DHT22;14792;50.886;6.468;2023-06-26T15:36:12;23.70;96.90
27306;DHT22;14792;50.886;6.468;2023-06-26T15:39:13;23.40;98.00
27306;DHT22;14792;50.886;6.468;2023-06-26T15:42:15;23.40;96.80
27306;DHT22;14792;50.886;6.468;2023-06-26T15:45:17;23.40;96.30
27306;DHT22;14792;50.886;6.468;2023-06-26T15:48:21;23.60;96.90
27306;DHT22;14792;50.886;6.468;2023-06-26T15:51:22;23.50;96.70
27306;DHT22;14792;50.886;6.468;2023-06-26T15:54:25;23.60;96.50
27306;DHT22;14792;50.886;6.468;2023-06-26T15:57:25;23.60;96.20
27306;DHT22;14792;50.886;6.468;2023-06-26T16:00:27;23.60;96.80
27306;DHT22;14792;50.886;6.468;2023-06-26T16:03:29;23.30;97.10
27306;DHT22;14792;50.886;6.468;2023-06-26T16:06:32;23.30;97.60
27306;DHT22;14792;50.886;6.468;2023-06-26T16:09:33;23.40;98.60
27306;DHT22;14792;50.886;6.468;2023-06-26T16:12:35;23.30;96.70
27306;DHT22;14792;50.886;6.468;2023-06-26T16:15:36;23.20;98.50
27306;DHT22;14792;50.886;6.468;2023-06-26T16:18:38;23.50;97.30
27306;DHT22;14792;50.886;6.468;2023-06-26T16:21:39;23.40;96.90
27306;DHT22;14792;50.886;6.468;2023-06-26T16:24:41;23.40;96.90
27306;DHT22;14792;50.886;6.468;2023-06-26T16:27:43;23.20;95.40
27306;DHT22;14792;50.886;6.468;2023-06-26T16:30:44;23.10;96.60
27306;DHT22;14792;50.886;6.468;2023-06-26T16:33:46;23.00;96.00
27306;DHT22;14792;50.886;6.468;2023-06-26T16:36:49;23.10;96.80
27306;DHT22;14792;50.886;6.468;2023-06-26T16:39:50;23.30;95.80
27306;DHT22;14792;50.886;6.468;2023-06-26T16:42:52;23.30;96.20
27306;DHT22;14792;50.886;6.468;2023-06-26T16:45:53;23.20;95.60
27306;DHT22;14792;50.886;6.468;2023-06-26T16:48:55;22.80;95.50
27306;DHT22;14792;50.886;6.468;2023-06-26T16:51:57;22.70;95.80
27306;DHT22;14792;50.886;6.468;2023-06-26T16:54:59;22.50;95.60
27306;DHT22;14792;50.886;6.468;2023-06-26T16:58:01;22.40;95.50
27306;DHT22;14792;50.886;6.468;2023-06-26T17:01:03;22.40;95.80
27306;DHT22;14792;50.886;6.468;2023-06-26T17:04:04;22.40;96.20
27306;DHT22;14792;50.886;6.468;2023-06-26T17:07:06;22.40;95.70
27306;DHT22;14792;50.886;6.468;2023-06-26T17:10:07;22.40;96.20
27306;DHT22;14792;50.886;6.468;2023-06-26T17:13:09;22.30;96.00
27306;DHT22;14792;50.886;6.468;2023-06-26T17:16:11;22.20;96.20
27306;DHT22;14792;50.886;6.468;2023-06-26T17:19:12;22.10;96.10
27306;DHT22;14792;50.886;6.468;2023-06-26T17:22:14;22.00;96.10
27306;DHT22;14792;50.886;6.468;2023-06-26T17:25:15;22.00;96.80
27306;DHT22;14792;50.886;6.468;2023-06-26T17:28:17;22.00;96.90
27306;DHT22;14792;50.886;6.468;2023-06-26T17:31:19;22.00;96.90
27306;DHT22;14792;50.886;6.468;2023-06-26T17:34:20;22.00;97.60
27306;DHT22;14792;50.886;6.468;2023-06-26T17:37:22;22.00;98.60
27306;DHT22;14792;50.886;6.468;2023-06-26T17:40:23;21.80;98.90
27306;DHT22;14792;50.886;6.468;2023-06-26T17:43:27;21.70;99.40
27306;DHT22;14792;50.886;6.468;2023-06-26T17:46:28;21.60;99.80
27306;DHT22;14792;50.886;6.468;2023-06-26T17:49:30;21.60;99.80
27306;DHT22;14792;50.886;6.468;2023-06-26T17:52:31;21.60;99.90
27306;DHT22;14792;50.886;6.468;2023-06-26T17:55:33;21.40;99.90
27306;DHT22;14792;50.886;6.468;2023-06-26T17:58:35;21.40;99.90
27306;DHT22;14792;50.886;6.468;2023-06-26T18:01:36;21.40;99.90
27306;DHT22;14792;50.886;6.468;2023-06-26T18:04:38;21.30;99.90
27306;DHT22;14792;50.886;6.468;2023-06-26T18:07:39;21.30;99.90
27306;DHT22;14792;50.886;6.468;2023-06-26T18:10:41;21.20;99.90
27306;DHT22;14792;50.886;6.468;2023-06-26T18:13:43;21.10;99.90
27306;DHT22;14792;50.886;6.468;2023-06-26T18:16:44;21.00;99.90
27306;DHT22;14792;50.886;6.468;2023-06-26T18:19:46;21.00;99.90
27306;DHT22;14792;50.886;6.468;2023-06-26T18:22:47;20.90;99.90
27306;DHT22;14792;50.886;6.468;2023-06-26T18:25:49;20.80;99.90
27306;DHT22;14792;50.886;6.468;2023-06-26T18:28:51;20.80;99.90
27306;DHT22;14792;50.886;6.468;2023-06-26T18:31:52;20.70;99.90
27306;DHT22;14792;50.886;6.468;2023-06-26T18:34:54;20.70;99.90
27306;DHT22;14792;50.886;6.468;2023-06-26T18:37:56;20.70;99.90
27306;DHT22;14792;50.886;6.468;2023-06-26T18:40:58;20.60;99.90
27306;DHT22;14792;50.886;6.468;2023-06-26T18:43:59;20.50;99.90
27306;DHT22;14792;50.886;6.468;2023-06-26T18:47:01;20.40;99.90
27306;DHT22;14792;50.886;6.468;2023-06-26T18:50:02;20.40;99.90
27306;DHT22;14792;50.886;6.468;2023-06-26T18:53:04;20.40;99.90
27306;DHT22;14792;50.886;6.468;2023-06-26T18:56:06;20.30;99.90
27306;DHT22;14792;50.886;6.468;2023-06-26T18:59:07;20.20;99.90
27306;DHT22;14792;50.886;6.468;2023-06-26T19:02:09;20.20;99.90
27306;DHT22;14792;50.886;6.468;2023-06-26T19:05:10;20.20;99.90
27306;DHT22;14792;50.886;6.468;2023-06-26T19:08:12;20.10;99.90
27306;DHT22;14792;50.886;6.468;2023-06-26T19:11:13;20.10;99.90
27306;DHT22;14792;50.886;6.468;2023-06-26T19:14:15;20.00;99.90